sensor_id;sensor_type;location;lat;lon;timestamp;P1;durP1;ratioP1;P2;durP2;ratioP2
10031;SDS011;5056;44.272;19.892;2023-04-03T00:05:21;10.10;;;7.97;;
10031;SDS011;5056;44.272;19.892;2023-04-03T00:07:47;10.03;;;7.40;;
10031;SDS011;5056;44.272;19.892;2023-04-03T00:10:15;11.43;;;8.10;;
10031;SDS011;5056;44.272;19.892;2023-04-03T00:12:41;10.47;;;8.00;;
10031;SDS011;5056;44.272;19.892;2023-04-03T00:15:09;11.63;;;8.60;;
10031;SDS011;5056;44.272;19.892;2023-04-03T00:17:36;11.50;;;8.57;;
10031;SDS011;5056;44.272;19.892;2023-04-03T00:20:03;11.77;;;8.00;;
10031;SDS011;5056;44.272;19.892;2023-04-03T00:22:34;9.77;;;8.57;;
10031;SDS011;5056;44.272;19.892;2023-04-03T00:25:02;10.30;;;8.00;;
10031;SDS011;5056;44.272;19.892;2023-04-03T00:27:30;9.27;;;7.60;;
10031;SDS011;5056;44.272;19.892;2023-04-03T00:29:57;10.10;;;8.07;;
10031;SDS011;5056;44.272;19.892;2023-04-03T00:32:24;8.67;;;7.77;;
10031;SDS011;5056;44.272;19.892;2023-04-03T00:34:51;10.20;;;7.67;;
10031;SDS011;5056;44.272;19.892;2023-04-03T00:37:18;9.33;;;7.93;;
10031;SDS011;5056;44.272;19.892;2023-04-03T00:39:46;8.73;;;7.50;;
10031;SDS011;5056;44.272;19.892;2023-04-03T00:42:13;8.43;;;7.53;;
10031;SDS011;5056;44.272;19.892;2023-04-03T00:47:45;8.27;;;6.97;;
10031;SDS011;5056;44.272;19.892;2023-04-03T00:50:12;7.30;;;6.60;;
10031;SDS011;5056;44.272;19.892;2023-04-03T00:52:39;7.37;;;6.47;;
10031;SDS011;5056;44.272;19.892;2023-04-03T00:55:08;7.17;;;6.43;;
10031;SDS011;5056;44.272;19.892;2023-04-03T00:57:35;7.77;;;6.43;;
10031;SDS011;5056;44.272;19.892;2023-04-03T01:00:04;6.50;;;5.97;;
10031;SDS011;5056;44.272;19.892;2023-04-03T01:02:34;7.00;;;6.13;;
10031;SDS011;5056;44.272;19.892;2023-04-03T01:05:01;7.47;;;5.90;;
10031;SDS011;5056;44.272;19.892;2023-04-03T01:07:29;6.07;;;5.53;;
10031;SDS011;5056;44.272;19.892;2023-04-03T01:09:57;7.53;;;6.80;;
10031;SDS011;5056;44.272;19.892;2023-04-03T01:15:18;7.70;;;7.00;;
10031;SDS011;5056;44.272;19.892;2023-04-03T01:17:48;7.83;;;7.03;;
10031;SDS011;5056;44.272;19.892;2023-04-03T01:23:31;8.00;;;7.20;;
10031;SDS011;5056;44.272;19.892;2023-04-03T01:26:13;9.80;;;8.80;;
10031;SDS011;5056;44.272;19.892;2023-04-03T01:28:42;9.13;;;8.23;;
10031;SDS011;5056;44.272;19.892;2023-04-03T01:31:12;9.80;;;8.53;;
10031;SDS011;5056;44.272;19.892;2023-04-03T01:33:43;9.47;;;8.47;;
10031;SDS011;5056;44.272;19.892;2023-04-03T01:36:15;8.93;;;8.13;;
10031;SDS011;5056;44.272;19.892;2023-04-03T01:38:43;9.13;;;7.93;;
10031;SDS011;5056;44.272;19.892;2023-04-03T01:41:10;10.20;;;8.87;;
10031;SDS011;5056;44.272;19.892;2023-04-03T01:43:37;9.63;;;8.73;;
10031;SDS011;5056;44.272;19.892;2023-04-03T01:46:04;12.70;;;9.30;;
10031;SDS011;5056;44.272;19.892;2023-04-03T01:48:32;10.13;;;9.23;;
10031;SDS011;5056;44.272;19.892;2023-04-03T01:51:19;9.40;;;8.50;;
10031;SDS011;5056;44.272;19.892;2023-04-03T01:53:46;9.70;;;8.70;;
10031;SDS011;5056;44.272;19.892;2023-04-03T01:56:13;10.57;;;9.47;;
10031;SDS011;5056;44.272;19.892;2023-04-03T01:58:40;9.90;;;9.00;;
10031;SDS011;5056;44.272;19.892;2023-04-03T02:01:07;10.37;;;9.37;;
10031;SDS011;5056;44.272;19.892;2023-04-03T02:06:25;11.53;;;10.40;;
10031;SDS011;5056;44.272;19.892;2023-04-03T02:08:52;10.83;;;9.83;;
10031;SDS011;5056;44.272;19.892;2023-04-03T02:11:19;12.23;;;9.60;;
10031;SDS011;5056;44.272;19.892;2023-04-03T02:13:46;11.53;;;10.37;;
10031;SDS011;5056;44.272;19.892;2023-04-03T02:16:13;12.73;;;9.83;;
10031;SDS011;5056;44.272;19.892;2023-04-03T02:18:40;10.53;;;9.63;;
10031;SDS011;5056;44.272;19.892;2023-04-03T02:21:07;10.60;;;9.70;;
10031;SDS011;5056;44.272;19.892;2023-04-03T02:23:35;11.03;;;9.97;;
10031;SDS011;5056;44.272;19.892;2023-04-03T02:26:03;13.37;;;10.60;;
10031;SDS011;5056;44.272;19.892;2023-04-03T02:28:31;10.37;;;9.47;;
10031;SDS011;5056;44.272;19.892;2023-04-03T02:30:58;11.70;;;10.50;;
10031;SDS011;5056;44.272;19.892;2023-04-03T02:33:24;10.73;;;9.60;;
10031;SDS011;5056;44.272;19.892;2023-04-03T02:35:52;11.13;;;10.13;;
10031;SDS011;5056;44.272;19.892;2023-04-03T02:38:19;11.80;;;10.60;;
10031;SDS011;5056;44.272;19.892;2023-04-03T02:40:48;11.27;;;10.17;;
10031;SDS011;5056;44.272;19.892;2023-04-03T02:43:31;12.17;;;11.07;;
10031;SDS011;5056;44.272;19.892;2023-04-03T02:45:57;11.10;;;9.90;;
10031;SDS011;5056;44.272;19.892;2023-04-03T02:48:24;11.33;;;10.23;;
10031;SDS011;5056;44.272;19.892;2023-04-03T02:50:51;10.77;;;9.73;;
10031;SDS011;5056;44.272;19.892;2023-04-03T02:53:18;11.63;;;10.53;;
10031;SDS011;5056;44.272;19.892;2023-04-03T02:55:45;10.23;;;9.33;;
10031;SDS011;5056;44.272;19.892;2023-04-03T02:58:18;10.43;;;9.47;;
10031;SDS011;5056;44.272;19.892;2023-04-03T03:00:45;10.87;;;9.87;;
10031;SDS011;5056;44.272;19.892;2023-04-03T03:03:12;11.37;;;9.37;;
10031;SDS011;5056;44.272;19.892;2023-04-03T03:05:40;11.03;;;10.03;;
10031;SDS011;5056;44.272;19.892;2023-04-03T03:08:06;10.77;;;9.70;;
10031;SDS011;5056;44.272;19.892;2023-04-03T03:10:33;11.57;;;10.43;;
10031;SDS011;5056;44.272;19.892;2023-04-03T03:13:04;11.63;;;9.67;;
10031;SDS011;5056;44.272;19.892;2023-04-03T03:15:31;10.57;;;9.47;;
10031;SDS011;5056;44.272;19.892;2023-04-03T03:17:58;10.97;;;9.97;;
10031;SDS011;5056;44.272;19.892;2023-04-03T03:20:25;11.47;;;9.80;;
10031;SDS011;5056;44.272;19.892;2023-04-03T03:22:52;11.23;;;10.13;;
10031;SDS011;5056;44.272;19.892;2023-04-03T03:25:18;11.07;;;10.03;;
10031;SDS011;5056;44.272;19.892;2023-04-03T03:27:45;11.70;;;9.53;;
10031;SDS011;5056;44.272;19.892;2023-04-03T03:30:15;10.93;;;9.83;;
10031;SDS011;5056;44.272;19.892;2023-04-03T03:32:41;11.33;;;10.23;;
10031;SDS011;5056;44.272;19.892;2023-04-03T03:35:08;12.40;;;11.07;;
10031;SDS011;5056;44.272;19.892;2023-04-03T03:37:35;11.03;;;9.93;;
10031;SDS011;5056;44.272;19.892;2023-04-03T03:40:02;11.40;;;10.37;;
10031;SDS011;5056;44.272;19.892;2023-04-03T03:42:28;11.10;;;10.00;;
10031;SDS011;5056;44.272;19.892;2023-04-03T03:44:55;11.00;;;9.97;;
10031;SDS011;5056;44.272;19.892;2023-04-03T03:47:24;11.93;;;10.83;;
10031;SDS011;5056;44.272;19.892;2023-04-03T03:49:52;14.17;;;12.43;;
10031;SDS011;5056;44.272;19.892;2023-04-03T03:52:19;12.17;;;11.07;;
10031;SDS011;5056;44.272;19.892;2023-04-03T03:54:46;11.23;;;10.23;;
10031;SDS011;5056;44.272;19.892;2023-04-03T03:57:13;12.00;;;10.90;;
10031;SDS011;5056;44.272;19.892;2023-04-03T03:59:40;13.00;;;11.80;;
10031;SDS011;5056;44.272;19.892;2023-04-03T04:02:07;11.70;;;10.60;;
10031;SDS011;5056;44.272;19.892;2023-04-03T04:04:36;13.77;;;11.63;;
10031;SDS011;5056;44.272;19.892;2023-04-03T04:07:03;11.93;;;10.83;;
10031;SDS011;5056;44.272;19.892;2023-04-03T04:09:30;12.00;;;10.90;;
10031;SDS011;5056;44.272;19.892;2023-04-03T04:11:57;12.63;;;11.43;;
10031;SDS011;5056;44.272;19.892;2023-04-03T04:14:24;14.23;;;12.73;;
10031;SDS011;5056;44.272;19.892;2023-04-03T04:16:51;13.13;;;11.83;;
10031;SDS011;5056;44.272;19.892;2023-04-03T04:19:18;14.70;;;12.53;;
10031;SDS011;5056;44.272;19.892;2023-04-03T04:21:46;11.93;;;10.83;;
10031;SDS011;5056;44.272;19.892;2023-04-03T04:24:13;13.90;;;12.50;;
10031;SDS011;5056;44.272;19.892;2023-04-03T04:26:40;14.27;;;12.80;;
10031;SDS011;5056;44.272;19.892;2023-04-03T04:29:08;15.47;;;13.87;;
10031;SDS011;5056;44.272;19.892;2023-04-03T04:31:35;14.33;;;12.83;;
10031;SDS011;5056;44.272;19.892;2023-04-03T04:34:03;13.67;;;12.27;;
10031;SDS011;5056;44.272;19.892;2023-04-03T04:36:31;12.93;;;11.73;;
10031;SDS011;5056;44.272;19.892;2023-04-03T04:38:59;17.17;;;13.60;;
10031;SDS011;5056;44.272;19.892;2023-04-03T04:41:27;17.20;;;14.43;;
10031;SDS011;5056;44.272;19.892;2023-04-03T04:43:54;15.07;;;13.57;;
10031;SDS011;5056;44.272;19.892;2023-04-03T04:46:20;21.33;;;17.30;;
10031;SDS011;5056;44.272;19.892;2023-04-03T04:48:47;16.30;;;14.13;;
10031;SDS011;5056;44.272;19.892;2023-04-03T04:51:14;18.47;;;15.43;;
10031;SDS011;5056;44.272;19.892;2023-04-03T04:53:41;17.93;;;15.70;;
10031;SDS011;5056;44.272;19.892;2023-04-03T04:56:11;18.63;;;16.63;;
10031;SDS011;5056;44.272;19.892;2023-04-03T04:58:38;23.73;;;20.83;;
10031;SDS011;5056;44.272;19.892;2023-04-03T05:01:06;19.27;;;17.27;;
10031;SDS011;5056;44.272;19.892;2023-04-03T05:03:35;15.47;;;13.87;;
10031;SDS011;5056;44.272;19.892;2023-04-03T05:06:04;17.97;;;16.03;;
10031;SDS011;5056;44.272;19.892;2023-04-03T05:08:31;16.10;;;14.50;;
10031;SDS011;5056;44.272;19.892;2023-04-03T05:10:58;15.43;;;12.73;;
10031;SDS011;5056;44.272;19.892;2023-04-03T05:13:27;15.77;;;14.13;;
10031;SDS011;5056;44.272;19.892;2023-04-03T05:15:53;12.67;;;11.37;;
10031;SDS011;5056;44.272;19.892;2023-04-03T05:18:24;15.83;;;14.13;;
10031;SDS011;5056;44.272;19.892;2023-04-03T05:20:51;14.63;;;13.17;;
10031;SDS011;5056;44.272;19.892;2023-04-03T05:23:18;12.37;;;11.13;;
10031;SDS011;5056;44.272;19.892;2023-04-03T05:25:45;11.40;;;10.20;;
10031;SDS011;5056;44.272;19.892;2023-04-03T05:28:14;10.93;;;9.83;;
10031;SDS011;5056;44.272;19.892;2023-04-03T05:30:42;11.77;;;10.53;;
10031;SDS011;5056;44.272;19.892;2023-04-03T05:33:09;13.37;;;11.80;;
10031;SDS011;5056;44.272;19.892;2023-04-03T05:35:44;10.80;;;9.70;;
10031;SDS011;5056;44.272;19.892;2023-04-03T05:38:12;12.13;;;10.83;;
10031;SDS011;5056;44.272;19.892;2023-04-03T05:40:40;13.23;;;11.83;;
10031;SDS011;5056;44.272;19.892;2023-04-03T05:43:07;15.10;;;13.50;;
10031;SDS011;5056;44.272;19.892;2023-04-03T05:45:34;12.77;;;10.60;;
10031;SDS011;5056;44.272;19.892;2023-04-03T05:48:03;15.17;;;12.50;;
10031;SDS011;5056;44.272;19.892;2023-04-03T05:50:31;15.20;;;12.37;;
10031;SDS011;5056;44.272;19.892;2023-04-03T05:52:59;13.20;;;11.53;;
10031;SDS011;5056;44.272;19.892;2023-04-03T05:55:28;13.67;;;12.27;;
10031;SDS011;5056;44.272;19.892;2023-04-03T05:57:55;13.13;;;11.73;;
10031;SDS011;5056;44.272;19.892;2023-04-03T06:00:22;11.47;;;10.33;;
10031;SDS011;5056;44.272;19.892;2023-04-03T06:02:49;12.50;;;11.27;;
10031;SDS011;5056;44.272;19.892;2023-04-03T06:05:18;13.27;;;11.87;;
10031;SDS011;5056;44.272;19.892;2023-04-03T06:07:44;16.23;;;13.37;;
10031;SDS011;5056;44.272;19.892;2023-04-03T06:10:11;14.70;;;13.17;;
10031;SDS011;5056;44.272;19.892;2023-04-03T06:12:38;14.50;;;12.67;;
10031;SDS011;5056;44.272;19.892;2023-04-03T06:15:06;13.83;;;12.43;;
10031;SDS011;5056;44.272;19.892;2023-04-03T06:17:35;12.60;;;11.30;;
10031;SDS011;5056;44.272;19.892;2023-04-03T06:20:02;13.57;;;12.23;;
10031;SDS011;5056;44.272;19.892;2023-04-03T06:22:32;11.63;;;10.53;;
10031;SDS011;5056;44.272;19.892;2023-04-03T06:24:59;12.27;;;11.00;;
10031;SDS011;5056;44.272;19.892;2023-04-03T06:27:27;16.07;;;13.07;;
10031;SDS011;5056;44.272;19.892;2023-04-03T06:29:54;13.90;;;12.50;;
10031;SDS011;5056;44.272;19.892;2023-04-03T06:32:21;15.27;;;13.60;;
10031;SDS011;5056;44.272;19.892;2023-04-03T06:34:49;15.17;;;13.40;;
10031;SDS011;5056;44.272;19.892;2023-04-03T06:37:19;18.40;;;14.17;;
10031;SDS011;5056;44.272;19.892;2023-04-03T06:39:52;17.77;;;13.10;;
10031;SDS011;5056;44.272;19.892;2023-04-03T06:42:21;16.00;;;12.97;;
10031;SDS011;5056;44.272;19.892;2023-04-03T06:44:48;15.23;;;13.00;;
10031;SDS011;5056;44.272;19.892;2023-04-03T06:47:15;12.40;;;10.80;;
10031;SDS011;5056;44.272;19.892;2023-04-03T06:49:45;10.67;;;9.57;;
10031;SDS011;5056;44.272;19.892;2023-04-03T06:52:12;10.10;;;9.00;;
10031;SDS011;5056;44.272;19.892;2023-04-03T06:54:39;10.37;;;9.37;;
10031;SDS011;5056;44.272;19.892;2023-04-03T07:00:25;10.27;;;9.20;;
10031;SDS011;5056;44.272;19.892;2023-04-03T07:02:53;9.83;;;8.83;;
10031;SDS011;5056;44.272;19.892;2023-04-03T07:05:21;11.47;;;9.77;;
10031;SDS011;5056;44.272;19.892;2023-04-03T07:07:48;12.50;;;10.37;;
10031;SDS011;5056;44.272;19.892;2023-04-03T07:10:16;9.70;;;8.70;;
10031;SDS011;5056;44.272;19.892;2023-04-03T07:12:44;9.17;;;8.17;;
10031;SDS011;5056;44.272;19.892;2023-04-03T07:15:11;8.13;;;7.17;;
10031;SDS011;5056;44.272;19.892;2023-04-03T07:17:40;9.20;;;7.83;;
10031;SDS011;5056;44.272;19.892;2023-04-03T07:20:08;8.03;;;7.27;;
10031;SDS011;5056;44.272;19.892;2023-04-03T07:22:35;8.57;;;7.77;;
10031;SDS011;5056;44.272;19.892;2023-04-03T07:25:02;9.53;;;7.00;;
10031;SDS011;5056;44.272;19.892;2023-04-03T07:27:32;7.80;;;7.00;;
10031;SDS011;5056;44.272;19.892;2023-04-03T07:29:59;8.80;;;7.53;;
10031;SDS011;5056;44.272;19.892;2023-04-03T07:32:26;10.13;;;8.87;;
10031;SDS011;5056;44.272;19.892;2023-04-03T07:34:54;9.50;;;8.50;;
10031;SDS011;5056;44.272;19.892;2023-04-03T07:37:21;9.70;;;8.13;;
10031;SDS011;5056;44.272;19.892;2023-04-03T07:39:48;8.47;;;7.63;;
10031;SDS011;5056;44.272;19.892;2023-04-03T07:42:15;7.37;;;6.33;;
10031;SDS011;5056;44.272;19.892;2023-04-03T07:44:42;7.33;;;6.63;;
10031;SDS011;5056;44.272;19.892;2023-04-03T07:47:11;6.80;;;6.10;;
10031;SDS011;5056;44.272;19.892;2023-04-03T07:49:40;7.50;;;6.80;;
10031;SDS011;5056;44.272;19.892;2023-04-03T07:52:08;7.17;;;6.47;;
10031;SDS011;5056;44.272;19.892;2023-04-03T07:54:35;7.03;;;6.33;;
10031;SDS011;5056;44.272;19.892;2023-04-03T07:57:03;8.63;;;7.83;;
10031;SDS011;5056;44.272;19.892;2023-04-03T07:59:30;8.17;;;7.30;;
10031;SDS011;5056;44.272;19.892;2023-04-03T08:01:57;8.77;;;7.30;;
10031;SDS011;5056;44.272;19.892;2023-04-03T08:04:29;7.37;;;6.67;;
10031;SDS011;5056;44.272;19.892;2023-04-03T08:06:56;8.43;;;7.33;;
10031;SDS011;5056;44.272;19.892;2023-04-03T08:09:25;8.93;;;7.97;;
10031;SDS011;5056;44.272;19.892;2023-04-03T08:11:51;10.80;;;8.53;;
10031;SDS011;5056;44.272;19.892;2023-04-03T08:14:19;12.50;;;9.83;;
10031;SDS011;5056;44.272;19.892;2023-04-03T08:16:46;10.93;;;9.03;;
10031;SDS011;5056;44.272;19.892;2023-04-03T08:19:13;9.57;;;8.07;;
10031;SDS011;5056;44.272;19.892;2023-04-03T08:21:45;15.57;;;12.87;;
10031;SDS011;5056;44.272;19.892;2023-04-03T08:24:11;9.83;;;8.50;;
10031;SDS011;5056;44.272;19.892;2023-04-03T08:26:40;14.77;;;12.23;;
10031;SDS011;5056;44.272;19.892;2023-04-03T08:29:06;9.47;;;8.47;;
10031;SDS011;5056;44.272;19.892;2023-04-03T08:31:33;11.67;;;10.53;;
10031;SDS011;5056;44.272;19.892;2023-04-03T08:34:00;11.43;;;10.27;;
10031;SDS011;5056;44.272;19.892;2023-04-03T08:36:28;11.03;;;9.10;;
10031;SDS011;5056;44.272;19.892;2023-04-03T08:38:55;10.13;;;9.13;;
10031;SDS011;5056;44.272;19.892;2023-04-03T08:41:29;10.80;;;9.07;;
10031;SDS011;5056;44.272;19.892;2023-04-03T08:44:00;14.93;;;9.57;;
10031;SDS011;5056;44.272;19.892;2023-04-03T08:46:40;10.80;;;9.50;;
10031;SDS011;5056;44.272;19.892;2023-04-03T08:49:18;9.90;;;8.90;;
10031;SDS011;5056;44.272;19.892;2023-04-03T08:51:49;9.87;;;8.80;;
10031;SDS011;5056;44.272;19.892;2023-04-03T08:54:20;14.23;;;9.63;;
10031;SDS011;5056;44.272;19.892;2023-04-03T08:56:51;18.07;;;11.60;;
10031;SDS011;5056;44.272;19.892;2023-04-03T08:59:22;29.77;;;17.70;;
10031;SDS011;5056;44.272;19.892;2023-04-03T09:01:52;24.53;;;14.23;;
10031;SDS011;5056;44.272;19.892;2023-04-03T09:04:26;12.30;;;9.10;;
10031;SDS011;5056;44.272;19.892;2023-04-03T09:06:57;10.87;;;8.70;;
10031;SDS011;5056;44.272;19.892;2023-04-03T09:09:30;10.83;;;9.40;;
10031;SDS011;5056;44.272;19.892;2023-04-03T09:12:07;13.60;;;10.37;;
10031;SDS011;5056;44.272;19.892;2023-04-03T09:14:44;9.63;;;7.93;;
10031;SDS011;5056;44.272;19.892;2023-04-03T09:17:15;8.27;;;7.47;;
10031;SDS011;5056;44.272;19.892;2023-04-03T09:19:48;8.87;;;7.90;;
10031;SDS011;5056;44.272;19.892;2023-04-03T09:22:19;10.50;;;9.23;;
10031;SDS011;5056;44.272;19.892;2023-04-03T09:24:50;9.20;;;7.97;;
10031;SDS011;5056;44.272;19.892;2023-04-03T09:27:21;9.00;;;8.03;;
10031;SDS011;5056;44.272;19.892;2023-04-03T09:29:49;11.57;;;10.40;;
10031;SDS011;5056;44.272;19.892;2023-04-03T09:32:21;19.73;;;11.97;;
10031;SDS011;5056;44.272;19.892;2023-04-03T09:34:53;13.70;;;11.80;;
10031;SDS011;5056;44.272;19.892;2023-04-03T09:37:35;10.80;;;9.63;;
10031;SDS011;5056;44.272;19.892;2023-04-03T09:40:27;15.30;;;10.87;;
10031;SDS011;5056;44.272;19.892;2023-04-03T09:42:57;11.23;;;8.77;;
10031;SDS011;5056;44.272;19.892;2023-04-03T09:45:27;10.83;;;8.30;;
10031;SDS011;5056;44.272;19.892;2023-04-03T09:50:53;14.10;;;9.50;;
10031;SDS011;5056;44.272;19.892;2023-04-03T09:53:28;10.53;;;8.77;;
10031;SDS011;5056;44.272;19.892;2023-04-03T09:55:57;13.27;;;10.70;;
10031;SDS011;5056;44.272;19.892;2023-04-03T09:58:25;11.53;;;9.70;;
10031;SDS011;5056;44.272;19.892;2023-04-03T10:00:56;13.90;;;10.60;;
10031;SDS011;5056;44.272;19.892;2023-04-03T10:03:41;16.47;;;12.20;;
10031;SDS011;5056;44.272;19.892;2023-04-03T10:06:22;16.20;;;11.83;;
10031;SDS011;5056;44.272;19.892;2023-04-03T10:08:58;15.57;;;12.13;;
10031;SDS011;5056;44.272;19.892;2023-04-03T10:11:26;12.63;;;9.57;;
10031;SDS011;5056;44.272;19.892;2023-04-03T10:13:54;14.23;;;11.03;;
10031;SDS011;5056;44.272;19.892;2023-04-03T10:16:27;20.13;;;13.93;;
10031;SDS011;5056;44.272;19.892;2023-04-03T10:19:01;18.00;;;12.90;;
10031;SDS011;5056;44.272;19.892;2023-04-03T10:21:35;19.63;;;13.67;;
10031;SDS011;5056;44.272;19.892;2023-04-03T10:24:09;17.80;;;13.83;;
10031;SDS011;5056;44.272;19.892;2023-04-03T10:26:39;21.17;;;14.00;;
10031;SDS011;5056;44.272;19.892;2023-04-03T10:29:13;13.13;;;10.43;;
10031;SDS011;5056;44.272;19.892;2023-04-03T10:31:50;15.57;;;10.57;;
10031;SDS011;5056;44.272;19.892;2023-04-03T10:34:22;13.17;;;10.60;;
10031;SDS011;5056;44.272;19.892;2023-04-03T10:36:52;16.63;;;12.43;;
10031;SDS011;5056;44.272;19.892;2023-04-03T10:39:23;15.77;;;13.23;;
10031;SDS011;5056;44.272;19.892;2023-04-03T10:41:58;11.83;;;9.70;;
10031;SDS011;5056;44.272;19.892;2023-04-03T10:44:31;14.63;;;10.97;;
10031;SDS011;5056;44.272;19.892;2023-04-03T10:47:07;12.87;;;11.67;;
10031;SDS011;5056;44.272;19.892;2023-04-03T10:49:40;13.40;;;12.10;;
10031;SDS011;5056;44.272;19.892;2023-04-03T10:52:13;14.67;;;13.20;;
10031;SDS011;5056;44.272;19.892;2023-04-03T10:54:45;13.93;;;12.53;;
10031;SDS011;5056;44.272;19.892;2023-04-03T10:57:16;11.73;;;10.57;;
10031;SDS011;5056;44.272;19.892;2023-04-03T10:59:44;16.10;;;13.17;;
10031;SDS011;5056;44.272;19.892;2023-04-03T11:02:16;15.83;;;14.07;;
10031;SDS011;5056;44.272;19.892;2023-04-03T11:04:46;12.63;;;11.20;;
10031;SDS011;5056;44.272;19.892;2023-04-03T11:07:16;12.80;;;11.50;;
10031;SDS011;5056;44.272;19.892;2023-04-03T11:09:44;10.97;;;9.90;;
10031;SDS011;5056;44.272;19.892;2023-04-03T11:12:14;12.43;;;10.80;;
10031;SDS011;5056;44.272;19.892;2023-04-03T11:14:44;12.30;;;11.07;;
10031;SDS011;5056;44.272;19.892;2023-04-03T11:17:21;11.50;;;10.40;;
10031;SDS011;5056;44.272;19.892;2023-04-03T11:19:57;12.63;;;10.80;;
10031;SDS011;5056;44.272;19.892;2023-04-03T11:22:27;12.40;;;11.20;;
10031;SDS011;5056;44.272;19.892;2023-04-03T11:24:59;12.97;;;10.63;;
10031;SDS011;5056;44.272;19.892;2023-04-03T11:27:30;13.30;;;11.73;;
10031;SDS011;5056;44.272;19.892;2023-04-03T11:30:14;13.40;;;12.00;;
10031;SDS011;5056;44.272;19.892;2023-04-03T11:32:51;13.93;;;12.43;;
10031;SDS011;5056;44.272;19.892;2023-04-03T11:35:25;14.93;;;13.50;;
10031;SDS011;5056;44.272;19.892;2023-04-03T11:37:53;14.63;;;13.07;;
10031;SDS011;5056;44.272;19.892;2023-04-03T11:40:22;14.37;;;12.80;;
10031;SDS011;5056;44.272;19.892;2023-04-03T11:42:55;16.10;;;14.00;;
10031;SDS011;5056;44.272;19.892;2023-04-03T11:45:33;13.87;;;12.40;;
10031;SDS011;5056;44.272;19.892;2023-04-03T11:48:04;17.20;;;14.87;;
10031;SDS011;5056;44.272;19.892;2023-04-03T11:50:38;18.07;;;16.17;;
10031;SDS011;5056;44.272;19.892;2023-04-03T11:53:25;16.03;;;14.43;;
10031;SDS011;5056;44.272;19.892;2023-04-03T11:55:56;18.57;;;16.43;;
10031;SDS011;5056;44.272;19.892;2023-04-03T11:58:25;16.43;;;14.73;;
10031;SDS011;5056;44.272;19.892;2023-04-03T12:00:58;18.87;;;16.80;;
10031;SDS011;5056;44.272;19.892;2023-04-03T12:03:35;17.33;;;15.57;;
10031;SDS011;5056;44.272;19.892;2023-04-03T12:09:26;17.13;;;15.43;;
10031;SDS011;5056;44.272;19.892;2023-04-03T12:12:01;19.67;;;16.83;;
10031;SDS011;5056;44.272;19.892;2023-04-03T12:14:54;20.90;;;17.90;;
10031;SDS011;5056;44.272;19.892;2023-04-03T12:17:22;21.00;;;18.80;;
10031;SDS011;5056;44.272;19.892;2023-04-03T12:19:54;28.03;;;23.40;;
10031;SDS011;5056;44.272;19.892;2023-04-03T12:22:20;26.00;;;21.57;;
10031;SDS011;5056;44.272;19.892;2023-04-03T12:24:48;21.97;;;19.50;;
10031;SDS011;5056;44.272;19.892;2023-04-03T12:27:25;18.77;;;16.80;;
10031;SDS011;5056;44.272;19.892;2023-04-03T12:30:00;20.60;;;18.37;;
10031;SDS011;5056;44.272;19.892;2023-04-03T12:35:34;19.67;;;17.40;;
10031;SDS011;5056;44.272;19.892;2023-04-03T12:40:50;18.40;;;16.47;;
10031;SDS011;5056;44.272;19.892;2023-04-03T12:46:11;17.63;;;15.83;;
10031;SDS011;5056;44.272;19.892;2023-04-03T12:48:46;17.70;;;15.70;;
10031;SDS011;5056;44.272;19.892;2023-04-03T12:51:17;19.17;;;15.27;;
10031;SDS011;5056;44.272;19.892;2023-04-03T12:53:45;21.40;;;18.17;;
10031;SDS011;5056;44.272;19.892;2023-04-03T12:56:23;19.80;;;17.13;;
10031;SDS011;5056;44.272;19.892;2023-04-03T12:58:52;20.60;;;18.40;;
10031;SDS011;5056;44.272;19.892;2023-04-03T13:01:21;26.83;;;23.23;;
10031;SDS011;5056;44.272;19.892;2023-04-03T13:03:49;21.23;;;19.10;;
10031;SDS011;5056;44.272;19.892;2023-04-03T13:06:21;24.10;;;20.43;;
10031;SDS011;5056;44.272;19.892;2023-04-03T13:08:50;20.13;;;17.97;;
10031;SDS011;5056;44.272;19.892;2023-04-03T13:11:18;19.37;;;17.33;;
10031;SDS011;5056;44.272;19.892;2023-04-03T13:13:56;19.47;;;17.20;;
10031;SDS011;5056;44.272;19.892;2023-04-03T13:16:24;23.97;;;21.33;;
10031;SDS011;5056;44.272;19.892;2023-04-03T13:18:51;23.20;;;20.03;;
10031;SDS011;5056;44.272;19.892;2023-04-03T13:21:22;20.63;;;18.53;;
10031;SDS011;5056;44.272;19.892;2023-04-03T13:23:54;21.53;;;18.20;;
10031;SDS011;5056;44.272;19.892;2023-04-03T13:26:24;20.70;;;18.07;;
10031;SDS011;5056;44.272;19.892;2023-04-03T13:28:53;23.60;;;21.03;;
10031;SDS011;5056;44.272;19.892;2023-04-03T13:31:22;25.07;;;22.03;;
10031;SDS011;5056;44.272;19.892;2023-04-03T13:33:56;23.50;;;20.57;;
10031;SDS011;5056;44.272;19.892;2023-04-03T13:36:30;20.43;;;18.23;;
10031;SDS011;5056;44.272;19.892;2023-04-03T13:38:58;25.30;;;21.40;;
10031;SDS011;5056;44.272;19.892;2023-04-03T13:41:29;23.80;;;21.20;;
10031;SDS011;5056;44.272;19.892;2023-04-03T13:46:44;21.13;;;18.90;;
10031;SDS011;5056;44.272;19.892;2023-04-03T13:49:18;23.27;;;20.17;;
10031;SDS011;5056;44.272;19.892;2023-04-03T13:51:51;23.40;;;20.40;;
10031;SDS011;5056;44.272;19.892;2023-04-03T13:54:19;27.60;;;20.80;;
10031;SDS011;5056;44.272;19.892;2023-04-03T13:56:52;23.57;;;20.20;;
10031;SDS011;5056;44.272;19.892;2023-04-03T13:59:21;26.20;;;22.97;;
10031;SDS011;5056;44.272;19.892;2023-04-03T14:01:51;25.90;;;22.10;;
10031;SDS011;5056;44.272;19.892;2023-04-03T14:04:21;24.77;;;21.90;;
10031;SDS011;5056;44.272;19.892;2023-04-03T14:06:55;26.60;;;21.07;;
10031;SDS011;5056;44.272;19.892;2023-04-03T14:09:26;32.80;;;26.83;;
10031;SDS011;5056;44.272;19.892;2023-04-03T14:11:54;27.83;;;24.33;;
10031;SDS011;5056;44.272;19.892;2023-04-03T14:14:23;25.87;;;22.13;;
10031;SDS011;5056;44.272;19.892;2023-04-03T14:16:53;24.60;;;21.90;;
10031;SDS011;5056;44.272;19.892;2023-04-03T14:19:24;25.83;;;21.17;;
10031;SDS011;5056;44.272;19.892;2023-04-03T14:21:54;23.97;;;21.47;;
10031;SDS011;5056;44.272;19.892;2023-04-03T14:24:24;28.57;;;24.13;;
10031;SDS011;5056;44.272;19.892;2023-04-03T14:26:53;28.27;;;23.47;;
10031;SDS011;5056;44.272;19.892;2023-04-03T14:29:22;25.37;;;22.67;;
10031;SDS011;5056;44.272;19.892;2023-04-03T14:31:49;28.23;;;23.73;;
10031;SDS011;5056;44.272;19.892;2023-04-03T14:34:16;27.33;;;23.60;;
10031;SDS011;5056;44.272;19.892;2023-04-03T14:36:43;24.27;;;21.57;;
10031;SDS011;5056;44.272;19.892;2023-04-03T14:39:16;26.70;;;22.37;;
10031;SDS011;5056;44.272;19.892;2023-04-03T14:41:45;29.50;;;25.27;;
10031;SDS011;5056;44.272;19.892;2023-04-03T14:44:12;27.77;;;24.40;;
10031;SDS011;5056;44.272;19.892;2023-04-03T14:46:40;27.20;;;21.97;;
10031;SDS011;5056;44.272;19.892;2023-04-03T14:49:11;31.90;;;22.93;;
10031;SDS011;5056;44.272;19.892;2023-04-03T14:51:40;28.57;;;23.10;;
10031;SDS011;5056;44.272;19.892;2023-04-03T14:54:10;31.17;;;24.83;;
10031;SDS011;5056;44.272;19.892;2023-04-03T14:56:41;35.50;;;25.73;;
10031;SDS011;5056;44.272;19.892;2023-04-03T14:59:09;27.93;;;24.80;;
10031;SDS011;5056;44.272;19.892;2023-04-03T15:01:38;32.27;;;27.80;;
10031;SDS011;5056;44.272;19.892;2023-04-03T15:04:10;32.27;;;28.30;;
10031;SDS011;5056;44.272;19.892;2023-04-03T15:06:37;43.40;;;37.50;;
10031;SDS011;5056;44.272;19.892;2023-04-03T15:09:05;30.93;;;27.80;;
10031;SDS011;5056;44.272;19.892;2023-04-03T15:11:36;35.80;;;30.10;;
10031;SDS011;5056;44.272;19.892;2023-04-03T15:14:03;32.60;;;29.03;;
10031;SDS011;5056;44.272;19.892;2023-04-03T15:16:30;31.27;;;27.97;;
10031;SDS011;5056;44.272;19.892;2023-04-03T15:18:56;38.00;;;31.47;;